ADDS TAF Board (Experimental) INFO Settings
IDs:

KMCI - Kansas City Intl, MO, US

Issued at 1736 UTC 03 Jul 2015
Updated at: 2207 UTC 03 Jul 2015
Time2153Z 03/23Z 04/00Z 04/01Z 04/02Z 04/03Z 04/04Z 04/05Z 04/06Z 04/07Z 04/08Z 04/09Z 04/10Z 04/11Z
Type OBS PRVL PRVL PRVL PRVL PRVL PRVL PRVL PRVL PRVL PRVL PRVL PRVL PRVL
VIS 10 >6 >6 >6 >6 >6 >6 >6 >6 >6 >6 >6 >6 >6
CIG -- -- -- -- -- -- -- -- -- -- -- -- -- --
Cover CLR FEW FEW FEW FEW FEW FEW FEW FEW FEW FEW FEW FEW FEW
FltCat VFR VFR VFR VFR VFR VFR VFR VFR VFR VFR VFR VFR VFR VFR
WX -- -- -- -- -- -- -- -- -- -- -- -- -- --
WDir 20 40 40 40 40 40 40 40 40 40 40 40 40 40
WSpd 5 7 7 7 7 7 7 7 7 7 7 7 7 7
WGst -- -- -- -- -- -- -- -- -- -- -- -- -- --
R01/19
XWnd -1 -3 -3 -3 -3 -3 -3 -3 -3 -3 -3 -3 -3 -3
HWnd 5 6 6 6 6 6 6 6 6 6 6 6 6 6
R09/27
XWnd 5 6 6 6 6 6 6 6 6 6 6 6 6 6
HWnd 1 4 4 4 4 4 4 4 4 4 4 4 4 4

NOTE: TEMPO conditions in [brackets]. Keep in mind TEMPO conditions might be better (lower impact) than prevailing conditions.

Raw TAF
KMCI 031736Z 0318/0418 04007KT P6SM FEW050
  FM041200 14005KT P6SM SKC


Raw METAR
KMCI 032153Z 02005KT 10SM CLR 26/12 A2995 RMK AO2 SLP132 T02610122
KMCI 032053Z VRB04KT 10SM CLR 26/13 A2996 RMK AO2 SLP134 T02610133 58008
KMCI 031953Z 04007KT 10SM CLR 25/14 A2997 RMK AO2 SLP138 T02500139

METAR Board
Radar Display
Forecast Discussion

TAF Board Legend

Potential Impact
Threat None Slight Moderate High
Visibility (sm) ≥5.1 5.1>X≥3 3>X≥1 <1
Ceiling (100 ft) ≥30.1 30.1>X≥10 10>X≥5 <5
Wind Speed (kt) <10 10≤X<20 20≤X<30 ≥30
Wind Gust (kt) <15 15≤X<25 25≤X<35 ≥35
Weather No Wx Reported VCTS,-TS,-FZRA,SN TS,FZRA +TS,+FZRA,+SN